createdAt,value
2023-03-05T00:00:20.695Z,531.00
2023-03-05T00:00:50.830Z,532.00
2023-03-05T00:01:20.743Z,532.00
2023-03-05T00:01:50.716Z,534.00
2023-03-05T00:02:20.875Z,536.00
2023-03-05T00:02:50.940Z,537.00
2023-03-05T00:03:21.053Z,537.00
2023-03-05T00:03:51.091Z,535.00
2023-03-05T00:04:21.075Z,535.00
2023-03-05T00:04:51.065Z,536.00
2023-03-05T00:05:21.187Z,538.00
2023-03-05T00:05:51.178Z,536.00
2023-03-05T00:06:21.169Z,536.00
2023-03-05T00:06:51.279Z,537.00
2023-03-05T00:07:21.395Z,537.00
2023-03-05T00:07:51.394Z,538.00
2023-03-05T00:08:21.512Z,537.00
2023-03-05T00:08:51.627Z,537.00
2023-03-05T00:09:21.751Z,537.00
2023-03-05T00:09:51.741Z,537.00
2023-03-05T00:10:21.855Z,536.00
2023-03-05T00:10:51.859Z,536.00
2023-03-05T00:11:21.988Z,536.00
2023-03-05T00:11:52.088Z,535.00
2023-03-05T00:12:22.230Z,534.00
2023-03-05T00:12:52.328Z,532.00
2023-03-05T00:13:22.326Z,532.00
2023-03-05T00:13:52.313Z,531.00
2023-03-05T00:14:22.444Z,532.00
2023-03-05T00:14:52.549Z,533.00
2023-03-05T00:15:22.669Z,533.00
2023-03-05T00:15:52.702Z,533.00
2023-03-05T00:16:22.742Z,534.00
2023-03-05T00:16:52.700Z,533.00
2023-03-05T00:17:22.698Z,534.00
2023-03-05T00:17:52.819Z,534.00
2023-03-05T00:18:22.926Z,534.00
2023-03-05T00:18:52.923Z,535.00
2023-03-05T00:19:22.927Z,534.00
2023-03-05T00:19:53.020Z,534.00
2023-03-05T00:20:23.100Z,530.00
2023-03-05T00:20:53.177Z,529.00
2023-03-05T00:21:23.263Z,530.00
2023-03-05T00:21:53.345Z,529.00
2023-03-05T00:22:23.428Z,530.00
2023-03-05T00:22:53.508Z,530.00
2023-03-05T00:23:23.584Z,530.00
2023-03-05T00:23:53.667Z,529.00
2023-03-05T00:24:23.751Z,530.00
2023-03-05T00:24:53.852Z,528.00
2023-03-05T00:25:23.922Z,529.00
2023-03-05T00:25:54.006Z,527.00
2023-03-05T00:26:24.087Z,525.00
2023-03-05T00:26:54.156Z,525.00
2023-03-05T00:27:24.239Z,525.00
2023-03-05T00:27:54.338Z,527.00
2023-03-05T00:28:24.405Z,528.00
2023-03-05T00:28:54.482Z,531.00
2023-03-05T00:29:24.563Z,532.00
2023-03-05T00:29:54.675Z,531.00
2023-03-05T00:30:24.802Z,533.00
2023-03-05T00:30:54.887Z,534.00
2023-03-05T00:31:24.967Z,533.00
2023-03-05T00:31:54.953Z,532.00
2023-03-05T00:32:24.971Z,532.00
2023-03-05T00:32:54.953Z,531.00
2023-03-05T00:33:25.079Z,530.00
2023-03-05T00:33:55.187Z,528.00
2023-03-05T00:34:25.196Z,526.00
2023-03-05T00:34:55.191Z,526.00
2023-03-05T00:35:25.341Z,527.00
2023-03-05T00:35:55.415Z,527.00
2023-03-05T00:36:25.423Z,528.00
2023-03-05T00:36:55.535Z,529.00
2023-03-05T00:37:25.662Z,528.00
2023-03-05T00:37:55.660Z,530.00
2023-03-05T00:38:25.771Z,530.00
2023-03-05T00:38:55.768Z,530.00
2023-03-05T00:39:25.889Z,528.00
2023-03-05T00:39:55.881Z,530.00
2023-03-05T00:40:25.959Z,530.00
2023-03-05T00:40:56.003Z,528.00
2023-03-05T00:41:25.996Z,529.00
2023-03-05T00:41:55.987Z,530.00
2023-03-05T00:42:25.982Z,531.00
2023-03-05T00:42:56.006Z,533.00
2023-03-05T00:43:26.114Z,532.00
2023-03-05T00:43:56.110Z,533.00
2023-03-05T00:44:26.225Z,533.00
2023-03-05T00:44:56.337Z,533.00
2023-03-05T00:45:26.459Z,535.00
2023-03-05T00:45:56.590Z,536.00
2023-03-05T00:46:26.684Z,534.00
2023-03-05T00:46:56.674Z,533.00
2023-03-05T00:47:26.797Z,534.00
2023-03-05T00:47:56.912Z,534.00
2023-03-05T00:48:27.033Z,533.00
2023-03-05T00:48:57.025Z,534.00
2023-03-05T00:49:27.146Z,536.00
2023-03-05T00:49:57.255Z,536.00
2023-03-05T00:50:27.258Z,535.00
2023-03-05T00:50:57.263Z,535.00
2023-03-05T00:51:27.392Z,536.00
2023-03-05T00:51:57.497Z,536.00
2023-03-05T00:52:27.517Z,536.00
2023-03-05T00:52:57.626Z,539.00
2023-03-05T00:53:27.744Z,537.00
2023-03-05T00:53:57.744Z,539.00
2023-03-05T00:54:27.866Z,539.00
2023-03-05T00:54:57.975Z,539.00
2023-03-05T00:55:28.091Z,540.00
2023-03-05T00:55:58.213Z,540.00
2023-03-05T00:56:28.203Z,539.00
2023-03-05T00:56:58.202Z,536.00
2023-03-05T00:57:28.316Z,537.00
2023-03-05T00:57:58.465Z,538.00
2023-03-05T00:58:28.435Z,538.00
2023-03-05T00:58:58.442Z,538.00
2023-03-05T00:59:28.438Z,537.00
2023-03-05T00:59:58.554Z,538.00
2023-03-05T01:00:28.549Z,537.00
2023-03-05T01:00:58.667Z,536.00
2023-03-05T01:01:28.730Z,536.00
2023-03-05T01:01:58.848Z,535.00
2023-03-05T01:02:28.848Z,534.00
2023-03-05T01:02:58.900Z,532.00
2023-03-05T01:03:28.953Z,532.00
2023-03-05T01:03:58.946Z,533.00
2023-03-05T01:04:29.063Z,532.00
2023-03-05T01:04:59.106Z,534.00
2023-03-05T01:05:29.175Z,537.00
2023-03-05T01:05:59.174Z,536.00
2023-03-05T01:06:29.161Z,537.00
2023-03-05T01:06:59.158Z,536.00
2023-03-05T01:07:29.275Z,537.00
2023-03-05T01:07:59.269Z,537.00
2023-03-05T01:08:29.274Z,536.00
2023-03-05T01:08:59.386Z,536.00
2023-03-05T01:09:29.506Z,536.00
2023-03-05T01:09:59.499Z,535.00
2023-03-05T01:10:29.616Z,536.00
2023-03-05T01:10:59.731Z,536.00
2023-03-05T01:11:29.737Z,536.00
2023-03-05T01:11:59.843Z,535.00
2023-03-05T01:12:29.959Z,535.00
2023-03-05T01:12:59.987Z,534.00
2023-03-05T01:13:29.954Z,535.00
2023-03-05T01:14:00.120Z,534.00
2023-03-05T01:14:30.083Z,533.00
2023-03-05T01:15:00.095Z,533.00
2023-03-05T01:15:30.193Z,533.00
2023-03-05T01:16:00.243Z,532.00
2023-03-05T01:16:30.264Z,532.00
2023-03-05T01:17:00.280Z,532.00
2023-03-05T01:17:30.398Z,532.00
2023-03-05T01:18:00.392Z,532.00
2023-03-05T01:18:30.509Z,533.00
2023-03-05T01:19:00.619Z,532.00
2023-03-05T01:19:30.645Z,533.00
2023-03-05T01:20:00.707Z,534.00
2023-03-05T01:20:30.799Z,533.00
2023-03-05T01:21:00.878Z,534.00
2023-03-05T01:21:30.964Z,533.00
2023-03-05T01:22:01.046Z,532.00
2023-03-05T01:22:31.138Z,533.00
2023-03-05T01:23:01.213Z,532.00
2023-03-05T01:23:31.289Z,532.00
2023-03-05T01:24:01.366Z,530.00
2023-03-05T01:24:31.447Z,531.00
2023-03-05T01:25:01.524Z,531.00
2023-03-05T01:25:31.620Z,530.00
2023-03-05T01:26:01.694Z,532.00
2023-03-05T01:26:31.771Z,532.00
2023-03-05T01:27:01.849Z,531.00
2023-03-05T01:27:31.925Z,533.00
2023-03-05T01:28:02.019Z,533.00
2023-03-05T01:28:32.118Z,530.00
2023-03-05T01:29:02.172Z,528.00
2023-03-05T01:29:32.258Z,528.00
2023-03-05T01:30:02.366Z,528.00
2023-03-05T01:30:32.482Z,527.00
2023-03-05T01:31:02.820Z,526.00
2023-03-05T01:31:32.728Z,526.00
2023-03-05T01:32:02.789Z,525.00
2023-03-05T01:32:34.721Z,525.00
2023-03-05T01:33:02.781Z,526.00
2023-03-05T01:33:32.902Z,526.00
2023-03-05T01:34:03.011Z,527.00
2023-03-05T01:34:33.151Z,528.00
2023-03-05T01:35:03.148Z,528.00
2023-03-05T01:35:33.308Z,526.00
2023-03-05T01:36:03.302Z,526.00
2023-03-05T01:36:33.301Z,526.00
2023-03-05T01:37:03.416Z,524.00
2023-03-05T01:37:33.417Z,525.00
2023-03-05T01:38:03.528Z,526.00
2023-03-05T01:38:33.645Z,525.00
2023-03-05T01:39:03.757Z,524.00
2023-03-05T01:39:33.758Z,524.00
2023-03-05T01:40:03.882Z,525.00
2023-03-05T01:40:33.985Z,525.00
2023-03-05T01:41:03.984Z,525.00
2023-03-05T01:41:33.978Z,526.00
2023-03-05T01:42:04.100Z,527.00
2023-03-05T01:42:34.089Z,528.00
2023-03-05T01:43:04.208Z,528.00
2023-03-05T01:43:34.203Z,530.00
2023-03-05T01:44:04.345Z,530.00
2023-03-05T01:44:34.318Z,530.00
2023-03-05T01:45:04.441Z,530.00
2023-03-05T01:45:34.592Z,529.00
2023-03-05T01:46:04.701Z,528.00
2023-03-05T01:46:34.799Z,527.00
2023-03-05T01:47:04.702Z,529.00
2023-03-05T01:47:34.700Z,529.00
2023-03-05T01:48:04.700Z,530.00
2023-03-05T01:48:34.689Z,530.00
2023-03-05T01:49:04.694Z,530.00
2023-03-05T01:49:34.747Z,532.00
2023-03-05T01:50:04.867Z,532.00
2023-03-05T01:50:34.858Z,531.00
2023-03-05T01:51:04.858Z,531.00
2023-03-05T01:51:34.855Z,532.00
2023-03-05T01:52:04.970Z,532.00
2023-03-05T01:52:34.973Z,531.00
2023-03-05T01:53:05.097Z,532.00
2023-03-05T01:53:35.194Z,531.00
2023-03-05T01:54:05.311Z,530.00
2023-03-05T01:54:35.313Z,530.00
2023-03-05T01:55:05.430Z,528.00
2023-03-05T01:55:35.442Z,529.00
2023-03-05T01:56:05.426Z,529.00
2023-03-05T01:56:35.421Z,529.00
2023-03-05T01:57:05.536Z,528.00
2023-03-05T01:57:35.529Z,529.00
2023-03-05T01:58:05.651Z,529.00
2023-03-05T01:58:35.763Z,528.00
2023-03-05T01:59:05.884Z,528.00
2023-03-05T01:59:35.903Z,530.00
2023-03-05T02:00:05.998Z,530.00
2023-03-05T02:00:36.103Z,528.00
2023-03-05T02:01:06.290Z,529.00
2023-03-05T02:01:36.307Z,529.00
2023-03-05T02:02:06.426Z,529.00
2023-03-05T02:02:36.418Z,529.00
2023-03-05T02:03:06.419Z,528.00
2023-03-05T02:03:36.550Z,529.00
2023-03-05T02:04:06.705Z,529.00
2023-03-05T02:04:36.684Z,529.00
2023-03-05T02:05:06.700Z,531.00
2023-03-05T02:05:36.799Z,529.00
2023-03-05T02:06:06.923Z,530.00
2023-03-05T02:06:36.913Z,528.00
2023-03-05T02:07:07.032Z,527.00
2023-03-05T02:07:37.023Z,527.00
2023-03-05T02:08:07.137Z,526.00
2023-03-05T02:08:37.254Z,527.00
2023-03-05T02:09:07.376Z,526.00
2023-03-05T02:09:37.370Z,526.00
2023-03-05T02:10:07.494Z,524.00
2023-03-05T02:10:37.491Z,521.00
2023-03-05T02:11:07.489Z,521.00
2023-03-05T02:11:37.482Z,522.00
2023-03-05T02:12:07.600Z,521.00
2023-03-05T02:12:37.602Z,521.00
2023-03-05T02:13:07.723Z,523.00
2023-03-05T02:13:37.840Z,523.00
2023-03-05T02:14:10.020Z,524.00
2023-03-05T02:14:37.854Z,523.00
2023-03-05T02:15:07.900Z,522.00
2023-03-05T02:15:37.874Z,522.00
2023-03-05T02:16:07.917Z,523.00
2023-03-05T02:16:37.918Z,523.00
2023-03-05T02:17:08.034Z,524.00
2023-03-05T02:17:38.015Z,524.00
2023-03-05T02:18:08.142Z,524.00
2023-03-05T02:18:38.249Z,523.00
2023-03-05T02:19:08.262Z,524.00
2023-03-05T02:19:38.358Z,523.00
2023-03-05T02:20:08.443Z,523.00
2023-03-05T02:20:38.519Z,522.00
2023-03-05T02:21:08.598Z,523.00
2023-03-05T02:21:38.677Z,523.00
2023-03-05T02:22:08.763Z,523.00
2023-03-05T02:22:38.840Z,523.00
2023-03-05T02:23:08.918Z,524.00
2023-03-05T02:23:39.020Z,524.00
2023-03-05T02:24:09.097Z,525.00
2023-03-05T02:24:39.167Z,525.00
2023-03-05T02:25:09.251Z,526.00
2023-03-05T02:25:39.345Z,525.00
2023-03-05T02:26:09.430Z,527.00
2023-03-05T02:26:39.507Z,527.00
2023-03-05T02:27:09.574Z,527.00
2023-03-05T02:27:39.654Z,526.00
2023-03-05T02:28:09.745Z,529.00
2023-03-05T02:28:39.808Z,528.00
2023-03-05T02:29:09.891Z,529.00
2023-03-05T02:29:39.980Z,527.00
2023-03-05T02:30:10.119Z,526.00
2023-03-05T02:30:40.133Z,526.00
2023-03-05T02:31:10.097Z,526.00
2023-03-05T02:31:40.178Z,527.00
2023-03-05T02:32:10.378Z,527.00
2023-03-05T02:32:40.235Z,527.00
2023-03-05T02:33:10.246Z,524.00
2023-03-05T02:33:40.246Z,525.00
2023-03-05T02:34:10.241Z,526.00
2023-03-05T02:34:40.237Z,526.00
2023-03-05T02:35:10.245Z,526.00
2023-03-05T02:35:40.273Z,525.00
2023-03-05T02:36:10.253Z,525.00
2023-03-05T02:36:40.369Z,525.00
2023-03-05T02:37:10.509Z,525.00
2023-03-05T02:37:40.496Z,527.00
2023-03-05T02:38:10.616Z,528.00
2023-03-05T02:38:40.732Z,527.00
2023-03-05T02:39:10.746Z,527.00
2023-03-05T02:39:40.726Z,527.00
2023-03-05T02:40:10.845Z,530.00
2023-03-05T02:40:40.842Z,532.00
2023-03-05T02:41:10.844Z,530.00
2023-03-05T02:41:40.963Z,531.00
2023-03-05T02:42:11.075Z,532.00
2023-03-05T02:42:41.199Z,531.00
2023-03-05T02:43:50.326Z,524.00
2023-03-05T02:44:20.390Z,521.00
2023-03-05T02:44:50.469Z,523.00
2023-03-05T02:45:20.558Z,525.00
2023-03-05T02:45:50.721Z,523.00
2023-03-05T02:46:20.680Z,522.00
2023-03-05T02:46:50.832Z,524.00
2023-03-05T02:47:20.900Z,524.00
2023-03-05T02:47:50.972Z,523.00
2023-03-05T02:48:21.056Z,526.00
2023-03-05T02:48:51.148Z,527.00
2023-03-05T02:49:21.220Z,525.00
2023-03-05T02:49:51.294Z,525.00
2023-03-05T02:50:21.531Z,524.00
2023-03-05T02:50:51.364Z,522.00
2023-03-05T02:51:21.452Z,522.00
2023-03-05T02:51:51.532Z,521.00
2023-03-05T02:52:21.614Z,522.00
2023-03-05T02:52:51.693Z,521.00
2023-03-05T02:53:21.778Z,519.00
2023-03-05T02:53:51.783Z,517.00
2023-03-05T02:54:21.897Z,517.00
2023-03-05T02:54:52.027Z,516.00
2023-03-05T02:55:22.032Z,515.00
2023-03-05T02:55:52.023Z,516.00
2023-03-05T02:56:22.025Z,516.00
2023-03-05T02:56:52.163Z,517.00
2023-03-05T02:57:22.154Z,518.00
2023-03-05T02:57:52.271Z,518.00
2023-03-05T02:58:22.392Z,519.00
2023-03-05T02:58:52.511Z,518.00
2023-03-05T02:59:22.525Z,520.00
2023-03-05T02:59:52.715Z,522.00
2023-03-05T03:00:22.697Z,524.00
2023-03-05T03:00:52.784Z,523.00
2023-03-05T03:01:22.777Z,523.00
2023-03-05T03:01:52.779Z,524.00
2023-03-05T03:02:22.776Z,525.00
2023-03-05T03:02:52.899Z,524.00
2023-03-05T03:03:23.012Z,524.00
2023-03-05T03:03:53.002Z,525.00
2023-03-05T03:04:23.112Z,525.00
2023-03-05T03:04:53.108Z,526.00
2023-03-05T03:05:23.240Z,525.00
2023-03-05T03:05:53.231Z,523.00
2023-03-05T03:06:23.232Z,522.00
2023-03-05T03:06:53.225Z,522.00
2023-03-05T03:07:23.343Z,523.00
2023-03-05T03:07:53.480Z,522.00
2023-03-05T03:08:23.588Z,522.00
2023-03-05T03:08:53.577Z,525.00
2023-03-05T03:09:23.695Z,525.00
2023-03-05T03:09:53.813Z,525.00
2023-03-05T03:10:23.832Z,525.00
2023-03-05T03:10:53.814Z,522.00
2023-03-05T03:11:23.804Z,523.00
2023-03-05T03:11:53.803Z,522.00
2023-03-05T03:12:23.815Z,523.00
2023-03-05T03:12:53.789Z,522.00
2023-03-05T03:13:23.791Z,522.00
2023-03-05T03:13:53.782Z,520.00
2023-03-05T03:14:23.781Z,522.00
2023-03-05T03:14:53.773Z,521.00
2023-03-05T03:15:23.894Z,521.00
2023-03-05T03:15:53.895Z,522.00
2023-03-05T03:16:23.927Z,522.00
2023-03-05T03:16:53.942Z,523.00
2023-03-05T03:17:23.945Z,522.00
2023-03-05T03:17:53.942Z,522.00
2023-03-05T03:18:23.953Z,521.00
2023-03-05T03:18:53.937Z,523.00
2023-03-05T03:19:24.050Z,521.00
2023-03-05T03:19:54.166Z,519.00
2023-03-05T03:20:24.172Z,520.00
2023-03-05T03:20:54.163Z,519.00
2023-03-05T03:21:24.178Z,519.00
2023-03-05T03:21:54.163Z,520.00
2023-03-05T03:22:24.284Z,520.00
2023-03-05T03:22:54.285Z,521.00
2023-03-05T03:23:24.398Z,523.00
2023-03-05T03:23:54.511Z,523.00
2023-03-05T03:24:24.517Z,524.00
2023-03-05T03:24:54.512Z,523.00
2023-03-05T03:25:24.631Z,522.00
2023-03-05T03:25:54.627Z,522.00
2023-03-05T03:26:24.749Z,524.00
2023-03-05T03:26:54.742Z,526.00
2023-03-05T03:27:24.744Z,527.00
2023-03-05T03:27:54.736Z,526.00
2023-03-05T03:28:25.272Z,525.00
2023-03-05T03:28:54.738Z,526.00
2023-03-05T03:29:24.777Z,526.00
2023-03-05T03:29:54.793Z,525.00
2023-03-05T03:30:24.778Z,524.00
2023-03-05T03:30:54.796Z,524.00
2023-03-05T03:31:24.799Z,526.00
2023-03-05T03:31:54.932Z,525.00
2023-03-05T03:32:25.041Z,527.00
2023-03-05T03:32:55.022Z,528.00
2023-03-05T03:33:25.023Z,526.00
2023-03-05T03:33:55.022Z,524.00
2023-03-05T03:34:25.025Z,522.00
2023-03-05T03:34:55.140Z,523.00
2023-03-05T03:35:25.216Z,523.00
2023-03-05T03:35:55.321Z,523.00
2023-03-05T03:36:25.323Z,525.00
2023-03-05T03:36:55.314Z,523.00
2023-03-05T03:37:25.308Z,522.00
2023-03-05T03:37:55.306Z,523.00
2023-03-05T03:38:25.427Z,521.00
2023-03-05T03:38:55.541Z,522.00
2023-03-05T03:39:25.671Z,524.00
2023-03-05T03:39:55.775Z,524.00
2023-03-05T03:40:25.773Z,525.00
2023-03-05T03:40:55.795Z,524.00
2023-03-05T03:41:25.794Z,526.00
2023-03-05T03:41:55.892Z,527.00
2023-03-05T03:42:26.035Z,527.00
2023-03-05T03:42:56.006Z,526.00
2023-03-05T03:43:26.126Z,523.00
2023-03-05T03:43:56.200Z,521.00
2023-03-05T03:44:26.276Z,522.00
2023-03-05T03:44:56.362Z,522.00
2023-03-05T03:45:26.441Z,522.00
2023-03-05T03:45:56.604Z,521.00
2023-03-05T03:46:26.593Z,522.00
2023-03-05T03:46:56.588Z,523.00
2023-03-05T03:47:26.697Z,522.00
2023-03-05T03:47:56.751Z,519.00
2023-03-05T03:48:26.829Z,518.00
2023-03-05T03:48:56.928Z,516.00
2023-03-05T03:49:27.002Z,515.00
2023-03-05T03:49:57.084Z,515.00
2023-03-05T03:50:27.171Z,516.00
2023-03-05T03:50:57.247Z,518.00
2023-03-05T03:51:27.509Z,517.00
2023-03-05T03:51:57.436Z,518.00
2023-03-05T03:52:27.524Z,519.00
2023-03-05T03:52:57.603Z,520.00
2023-03-05T03:53:27.696Z,519.00
2023-03-05T03:53:57.816Z,517.00
2023-03-05T03:54:27.929Z,517.00
2023-03-05T03:54:57.929Z,516.00
2023-03-05T03:55:27.942Z,517.00
2023-03-05T03:55:57.933Z,518.00
2023-03-05T03:56:27.945Z,519.00
2023-03-05T03:56:58.077Z,520.00
2023-03-05T03:57:28.057Z,521.00
2023-03-05T03:57:58.179Z,519.00
2023-03-05T03:58:28.289Z,518.00
2023-03-05T03:58:58.409Z,517.00
2023-03-05T03:59:28.415Z,520.00
2023-03-05T03:59:58.521Z,519.00
2023-03-05T04:00:28.659Z,520.00
2023-03-05T04:00:58.690Z,521.00
2023-03-05T04:01:28.666Z,522.00
2023-03-05T04:01:58.663Z,523.00
2023-03-05T04:02:28.713Z,522.00
2023-03-05T04:02:58.713Z,521.00
2023-03-05T04:03:28.680Z,520.00
2023-03-05T04:03:58.782Z,520.00
2023-03-05T04:04:28.832Z,520.00
2023-03-05T04:04:58.855Z,520.00
2023-03-05T04:05:28.857Z,520.00
2023-03-05T04:05:58.868Z,521.00
2023-03-05T04:06:28.851Z,521.00
2023-03-05T04:06:58.860Z,520.00
2023-03-05T04:07:28.845Z,520.00
2023-03-05T04:07:58.968Z,517.00
2023-03-05T04:08:28.971Z,517.00
2023-03-05T04:08:58.963Z,517.00
2023-03-05T04:09:28.986Z,517.00
2023-03-05T04:09:58.986Z,517.00
2023-03-05T04:10:28.984Z,519.00
2023-03-05T04:10:58.978Z,520.00
2023-03-05T04:11:29.020Z,520.00
2023-03-05T04:11:59.132Z,521.00
2023-03-05T04:12:29.127Z,521.00
2023-03-05T04:12:59.152Z,520.00
2023-03-05T04:13:29.163Z,520.00
2023-03-05T04:13:59.190Z,520.00
2023-03-05T04:14:29.184Z,520.00
2023-03-05T04:14:59.181Z,520.00
2023-03-05T04:15:29.173Z,520.00
2023-03-05T04:15:59.255Z,517.00
2023-03-05T04:16:29.264Z,517.00
2023-03-05T04:16:59.260Z,515.00
2023-03-05T04:17:29.377Z,517.00
2023-03-05T04:17:59.701Z,518.00
2023-03-05T04:18:32.188Z,519.00
2023-03-05T04:18:59.567Z,518.00
2023-03-05T04:19:29.671Z,518.00
2023-03-05T04:19:59.675Z,518.00
2023-03-05T04:20:29.794Z,518.00
2023-03-05T04:20:59.912Z,518.00
2023-03-05T04:21:29.924Z,517.00
2023-03-05T04:21:59.903Z,517.00
2023-03-05T04:22:30.020Z,517.00
2023-03-05T04:23:00.022Z,517.00
2023-03-05T04:23:30.062Z,518.00
2023-03-05T04:24:00.042Z,518.00
2023-03-05T04:24:30.040Z,519.00
2023-03-05T04:25:00.158Z,521.00
2023-03-05T04:25:30.278Z,521.00
2023-03-05T04:26:00.269Z,522.00
2023-03-05T04:26:30.265Z,521.00
2023-03-05T04:27:00.379Z,521.00
2023-03-05T04:27:30.385Z,520.00
2023-03-05T04:28:00.501Z,520.00
2023-03-05T04:28:30.520Z,519.00
2023-03-05T04:29:00.611Z,520.00
2023-03-05T04:29:30.611Z,519.00
2023-03-05T04:30:00.722Z,517.00
2023-03-05T04:30:30.725Z,517.00
2023-03-05T04:31:00.787Z,517.00
2023-03-05T04:31:30.849Z,516.00
2023-03-05T04:32:00.863Z,517.00
2023-03-05T04:32:30.880Z,517.00
2023-03-05T04:33:00.855Z,518.00
2023-03-05T04:33:30.868Z,520.00
2023-03-05T04:34:00.874Z,520.00
2023-03-05T04:34:30.986Z,520.00
2023-03-05T04:35:00.976Z,519.00
2023-03-05T04:35:30.989Z,519.00
2023-03-05T04:36:01.137Z,518.00
2023-03-05T04:36:31.117Z,518.00
2023-03-05T04:37:01.111Z,519.00
2023-03-05T04:37:31.108Z,520.00
2023-03-05T04:38:01.114Z,520.00
2023-03-05T04:38:31.109Z,519.00
2023-03-05T04:39:01.103Z,520.00
2023-03-05T04:39:31.219Z,521.00
2023-03-05T04:40:01.216Z,520.00
2023-03-05T04:40:31.204Z,521.00
2023-03-05T04:41:01.215Z,522.00
2023-03-05T04:41:31.211Z,521.00
2023-03-05T04:42:01.334Z,520.00
2023-03-05T04:42:31.331Z,520.00
2023-03-05T04:43:01.460Z,520.00
2023-03-05T04:43:31.548Z,520.00
2023-03-05T04:44:01.632Z,519.00
2023-03-05T04:44:31.708Z,519.00
2023-03-05T04:45:01.801Z,519.00
2023-03-05T04:45:31.897Z,520.00
2023-03-05T04:46:01.983Z,521.00
2023-03-05T04:46:32.108Z,521.00
2023-03-05T04:47:02.178Z,522.00
2023-03-05T04:47:32.257Z,523.00
2023-03-05T04:48:02.351Z,522.00
2023-03-05T04:48:32.416Z,522.00
2023-03-05T04:49:02.526Z,524.00
2023-03-05T04:49:32.580Z,523.00
2023-03-05T04:50:02.669Z,523.00
2023-03-05T04:50:32.743Z,523.00
2023-03-05T04:51:02.836Z,521.00
2023-03-05T04:51:32.912Z,520.00
2023-03-05T04:52:02.991Z,519.00
2023-03-05T04:52:33.080Z,519.00
2023-03-05T04:53:03.154Z,518.00
2023-03-05T04:53:33.259Z,521.00
2023-03-05T04:54:03.381Z,522.00
2023-03-05T04:54:33.489Z,521.00
2023-03-05T04:55:03.494Z,521.00
2023-03-05T04:55:33.611Z,522.00
2023-03-05T04:56:03.616Z,522.00
2023-03-05T04:56:33.639Z,522.00
2023-03-05T04:57:03.636Z,521.00
2023-03-05T04:57:33.749Z,522.00
2023-03-05T04:58:03.759Z,521.00
2023-03-05T04:58:33.747Z,521.00
2023-03-05T04:59:03.871Z,522.00
2023-03-05T04:59:33.980Z,522.00
2023-03-05T05:00:03.982Z,523.00
2023-03-05T05:00:34.095Z,523.00
2023-03-05T05:01:04.116Z,524.00
2023-03-05T05:01:34.156Z,522.00
2023-03-05T05:02:04.244Z,523.00
2023-03-05T05:02:34.256Z,523.00
2023-03-05T05:03:04.318Z,524.00
2023-03-05T05:03:34.325Z,524.00
2023-03-05T05:04:04.331Z,526.00
2023-03-05T05:04:34.479Z,525.00
2023-03-05T05:05:04.470Z,524.00
2023-03-05T05:05:34.455Z,526.00
2023-03-05T05:06:04.464Z,526.00
2023-03-05T05:06:34.454Z,526.00
2023-03-05T05:07:04.576Z,526.00
2023-03-05T05:07:34.570Z,527.00
2023-03-05T05:08:04.686Z,526.00
2023-03-05T05:08:34.684Z,525.00
2023-03-05T05:09:04.798Z,525.00
2023-03-05T05:09:34.821Z,525.00
2023-03-05T05:10:04.800Z,525.00
2023-03-05T05:10:34.916Z,524.00
2023-03-05T05:11:04.924Z,525.00
2023-03-05T05:11:34.922Z,524.00
2023-03-05T05:12:04.918Z,524.00
2023-03-05T05:12:34.908Z,524.00
2023-03-05T05:13:05.035Z,524.00
2023-03-05T05:13:35.153Z,524.00
2023-03-05T05:14:05.274Z,526.00
2023-03-05T05:14:35.293Z,525.00
2023-03-05T05:15:05.401Z,524.00
2023-03-05T05:15:35.395Z,523.00
2023-03-05T05:16:05.425Z,520.00
2023-03-05T05:16:35.440Z,520.00
2023-03-05T05:17:05.434Z,521.00
2023-03-05T05:17:35.407Z,520.00
2023-03-05T05:18:05.526Z,519.00
2023-03-05T05:18:35.537Z,519.00
2023-03-05T05:19:05.548Z,521.00
2023-03-05T05:19:35.658Z,522.00
2023-03-05T05:20:05.564Z,523.00
2023-03-05T05:20:35.532Z,524.00
2023-03-05T05:21:05.656Z,525.00
2023-03-05T05:21:35.668Z,526.00
2023-03-05T05:22:05.779Z,527.00
2023-03-05T05:22:35.781Z,528.00
2023-03-05T05:23:05.775Z,526.00
2023-03-05T05:23:35.778Z,525.00
2023-03-05T05:24:05.775Z,521.00
2023-03-05T05:24:35.765Z,520.00
2023-03-05T05:25:05.767Z,520.00
2023-03-05T05:25:35.879Z,519.00
2023-03-05T05:26:06.039Z,518.00
2023-03-05T05:26:36.016Z,518.00
2023-03-05T05:27:06.136Z,518.00
2023-03-05T05:27:36.139Z,517.00
2023-03-05T05:28:06.158Z,518.00
2023-03-05T05:28:36.162Z,519.00
2023-03-05T05:29:06.271Z,521.00
2023-03-05T05:29:36.270Z,520.00
2023-03-05T05:30:06.387Z,518.00
2023-03-05T05:30:36.382Z,516.00
2023-03-05T05:31:06.593Z,518.00
2023-03-05T05:31:36.622Z,521.00
2023-03-05T05:32:06.643Z,521.00
2023-03-05T05:32:36.763Z,521.00
2023-03-05T05:33:06.698Z,521.00
2023-03-05T05:33:36.677Z,523.00
2023-03-05T05:34:06.792Z,522.00
2023-03-05T05:34:36.797Z,521.00
2023-03-05T05:35:06.816Z,521.00
2023-03-05T05:35:36.822Z,520.00
2023-03-05T05:36:06.818Z,521.00
2023-03-05T05:36:36.822Z,522.00
2023-03-05T05:37:06.815Z,522.00
2023-03-05T05:37:36.828Z,522.00
2023-03-05T05:38:06.928Z,521.00
2023-03-05T05:38:36.930Z,520.00
2023-03-05T05:39:07.049Z,519.00
2023-03-05T05:39:37.048Z,518.00
2023-03-05T05:40:07.164Z,517.00
2023-03-05T05:40:37.277Z,519.00
2023-03-05T05:41:07.401Z,519.00
2023-03-05T05:41:37.394Z,519.00
2023-03-05T05:42:07.403Z,518.00
2023-03-05T05:42:37.399Z,517.00
2023-03-05T05:43:07.517Z,516.00
2023-03-05T05:43:37.610Z,515.00
2023-03-05T05:44:07.696Z,515.00
2023-03-05T05:44:37.815Z,516.00
2023-03-05T05:45:07.908Z,515.00
2023-03-05T05:45:38.232Z,517.00
2023-03-05T05:46:08.163Z,515.00
2023-03-05T05:46:38.187Z,517.00
2023-03-05T05:47:08.172Z,519.00
2023-03-05T05:47:38.258Z,517.00
2023-03-05T05:48:08.341Z,518.00
2023-03-05T05:48:38.422Z,519.00
2023-03-05T05:49:08.502Z,520.00
2023-03-05T05:49:38.587Z,518.00
2023-03-05T05:50:08.675Z,518.00
2023-03-05T05:50:38.775Z,519.00
2023-03-05T05:51:08.846Z,518.00
2023-03-05T05:51:38.930Z,519.00
2023-03-05T05:52:09.015Z,520.00
2023-03-05T05:52:39.096Z,518.00
2023-03-05T05:53:09.175Z,516.00
2023-03-05T05:53:39.284Z,516.00
2023-03-05T05:54:09.283Z,514.00
2023-03-05T05:54:39.288Z,515.00
2023-03-05T05:55:09.286Z,516.00
2023-03-05T05:55:39.270Z,517.00
2023-03-05T05:56:09.414Z,518.00
2023-03-05T05:56:39.391Z,518.00
2023-03-05T05:57:09.388Z,517.00
2023-03-05T05:57:39.384Z,518.00
2023-03-05T05:58:09.390Z,518.00
2023-03-05T05:58:39.494Z,518.00
2023-03-05T05:59:09.488Z,518.00
2023-03-05T05:59:39.494Z,518.00
2023-03-05T06:00:09.481Z,518.00
2023-03-05T06:00:39.480Z,518.00
2023-03-05T06:01:09.606Z,518.00
2023-03-05T06:01:39.705Z,518.00
2023-03-05T06:02:09.718Z,518.00
2023-03-05T06:02:39.736Z,517.00
2023-03-05T06:03:09.785Z,520.00
2023-03-05T06:03:39.787Z,520.00
2023-03-05T06:04:09.931Z,519.00
2023-03-05T06:04:39.934Z,520.00
2023-03-05T06:05:09.911Z,521.00
2023-03-05T06:05:39.907Z,523.00
2023-03-05T06:06:10.052Z,524.00
2023-03-05T06:06:40.026Z,523.00
2023-03-05T06:07:10.146Z,523.00
2023-03-05T06:07:40.148Z,522.00
2023-03-05T06:08:10.152Z,521.00
2023-03-05T06:08:40.150Z,521.00
2023-03-05T06:09:10.272Z,520.00
2023-03-05T06:09:40.282Z,522.00
2023-03-05T06:10:10.415Z,522.00
2023-03-05T06:10:40.506Z,520.00
2023-03-05T06:11:10.503Z,518.00
2023-03-05T06:11:40.633Z,519.00
2023-03-05T06:12:10.621Z,519.00
2023-03-05T06:12:40.626Z,518.00
2023-03-05T06:13:10.633Z,520.00
2023-03-05T06:13:40.622Z,521.00
2023-03-05T06:14:10.739Z,522.00
2023-03-05T06:14:40.733Z,522.00
2023-03-05T06:15:10.859Z,523.00
2023-03-05T06:15:40.849Z,523.00